Kota Taipei, Taiwan

05:22 PM CST on Juli 23, 2014 (GMT +0800)
ITAIPEIT2 Elev 30 ft | 25.03 °N, 121.53 °E | Change Station

Current weather conditions updated 25 seconds ago

Light Rain Showers
Gerimis Kecil
81.3 °F
Feels Like 88 °F
N
2.0
Angin Variable Angin from Dari Utara ke Timurlaut
Gusts 3.0 mph

Tomorrow is forecast to be Warmer than today. Badai petir terpencar. tomorrow night.

Siang Ini
High -- | Low -- °F
--% Chance of Precip.
Yesterday
High -- | Low -- °F
Precip. -- Inch
5:16 AM 6:43 PM
Waning Crescent, 11% visible
Tekanan 29.36 Inch
Jarak Pandang 6.2 Mil
Awan Few 1000 ft
Mendung Tidak Merata 1600 ft
Mendung Merata 5000 ft
Ideks Panas 88 °F
Titik Embun 76 °F
Kelembaban 83%
Rainfall 1.90 Inch
Snow Depth Not available.
UV 0.0 out of 12
Pollen Not available.
Air Quality Not available.
Flu Activity Not available.
METAR RCSS 230900Z 08005KT 020V100 9999 -SHRA FEW010 SCT016 BKN050 27/24 Q0994 NOSIG RMK QFF 994.9HPA A2938 RA AMT 0.4MM

More Conditions Fewer Conditions

Tekanan 29.36 Inch
Jarak Pandang 6.2 Mil
Awan Few 1000 ft
Mendung Tidak Merata 1600 ft
Mendung Merata 5000 ft
Ideks Panas 88 °F
Titik Embun 76 °F
Kelembaban 83%
Rainfall 1.90 Inch
Snow Depth Not available.
UV 0.0 out of 12
Pollen Not available.
Air Quality Not available.
Flu Activity Not available.
METAR RCSS 230900Z 08005KT 020V100 9999 -SHRA FEW010 SCT016 BKN050 27/24 Q0994 NOSIG RMK QFF 994.9HPA A2938 RA AMT 0.4MM

More Conditions Fewer Conditions

10-Day Weather Forecast

Almanac

Astronomi

Jul. 23, 2014 Rise Set
Actual Time 5:16 AM CST 6:43 PM CST
Civil Twilight 4:51 AM CST 7:08 PM CST
Nautical Twilight 4:22 AM CST 7:38 PM CST
Astronomical Twilight 3:51 AM CST 8:09 PM CST
Moon 2:05 AM CST 3:45 PM CST
Length Of Visible Light 14h 16m
Lama Satu Hari
13h 26m
Tomorrow will be 0m 54s shorter.
Waning Crescent, 11% of the Moon is Illuminated
Siang Ini
Waning Crescent
Jul 26
New
Aug 3
Triwulan Pertama
Aug 10
Bulan Purnama
Aug 17
Kuartil Terakhir

Yesterday's Extremes

Country Highs Country Lows

Community

WunderPhotos

Upload Photos

1,736,535 photos uploaded!

Nearby

Snow Depth

Not available.

Earthquake Activity

City Distance Mag. Time & Date
No recent earthquake activity has been reported nearby.
Minimum magnitude displayed is 2.5.

Coastal Water Temperatures

Lokasi Temperatur
No Stations Reporting

Nearby Weather Stations

Station Location Temp Ideks Panas Titik Embun Kelembaban Angin Precip. Elev Telah Diperbaharui Type
Taipei Da'An 81.3 °F 88 °F 76 °F 83% Dari Utara ke Timurlaut  Pada  2.0 mph 0.02 Inch / hr 30 ft 5:22 PM CST Normal
Yonghe City 85.5 °F 103 °F 82 °F 89% Arah Barat  Pada  5.0 mph 0.00 Inch / hr 62 ft 5:20 PM CST Normal
Peihsi and Crius - XisTW, Pingzhen 77.7 °F 80 °F 76 °F 95% Arah Timur  Pada  3.0 mph 0.11 Inch / hr 492 ft 5:22 PM CST Rapid Fire
I-Lan 83.0 °F 93 °F 78 °F 85% Arah Barat  Pada  1.0 mph 0.00 Inch / hr 0 ft 5:12 PM CST Normal

Show More Stations Show Fewer Stations